Time;durP1;ratioP1;P1;durP2;ratioP2;P2;SDS_P1;SDS_P2;PMS_P1;PMS_P2;Temp;Humidity;BMP_temperature;BMP_pressure;BME280_temperature;BME280_humidity;BME280_pressure;Samples;Min_cycle;Max_cycle;Signal;HPM_P1;HPM_P2
2023/09/17 00:01:53;;;;;;;10.10;7.70;;;;;;;15.24;100.00;102097.91;4908636;29;20192;-70
2023/09/17 00:04:18;;;;;;;10.77;8.53;;;;;;;14.34;100.00;101973.44;4923086;29;20247;-70
2023/09/17 00:06:44;;;;;;;9.57;7.87;;;;;;;15.06;100.00;102087.59;4907657;29;20531;-70
2023/09/17 00:09:09;;;;;;;9.37;8.13;;;;;;;14.29;100.00;101991.25;4914235;29;21119;-70
2023/09/17 00:11:35;;;;;;;9.53;8.07;;;;;;;14.45;100.00;101994.50;4918851;29;20185;-70
2023/09/17 00:14:01;;;;;;;9.60;7.37;;;;;;;14.41;100.00;101979.72;4906515;29;20204;-70
2023/09/17 00:16:31;;;;;;;9.70;7.30;;;;;;;14.75;100.00;102031.28;4904952;29;20659;-70
2023/09/17 00:18:57;;;;;;;9.80;7.70;;;;;;;14.51;100.00;102019.03;4907475;29;21003;-70
2023/09/17 00:21:23;;;;;;;10.00;7.70;;;;;;;14.44;100.00;102019.00;4906017;29;20583;-70
2023/09/17 00:23:48;;;;;;;10.03;8.50;;;;;;;15.00;100.00;102064.91;4907381;29;20475;-70
2023/09/17 00:26:13;;;;;;;9.20;8.20;;;;;;;14.77;100.00;102067.03;4918824;29;20188;-70
2023/09/17 00:28:39;;;;;;;9.77;8.70;;;;;;;14.69;100.00;102060.78;4905515;29;20211;-70
2023/09/17 00:31:04;;;;;;;11.20;9.53;;;;;;;14.85;100.00;102086.63;4906340;29;20214;-70
2023/09/17 00:33:30;;;;;;;10.33;9.23;;;;;;;14.56;100.00;102003.97;4906040;29;20848;-70
2023/09/17 00:35:55;;;;;;;11.40;8.63;;;;;;;14.35;100.00;102006.66;4904529;29;20581;-70
2023/09/17 00:38:21;;;;;;;11.93;8.33;;;;;;;14.73;100.00;102081.97;4907416;29;20772;-70
2023/09/17 00:40:46;;;;;;;10.70;8.23;;;;;;;14.27;100.00;101983.34;4919828;29;20203;-70
2023/09/17 00:43:11;;;;;;;9.03;8.10;;;;;;;14.22;100.00;101975.84;4904952;29;20209;-70
2023/09/17 00:45:40;;;;;;;15.80;9.03;;;;;;;14.95;100.00;102093.56;4905793;29;20204;-70
2023/09/17 00:48:07;;;;;;;10.67;8.47;;;;;;;14.13;100.00;101960.81;4906319;29;20721;-70
2023/09/17 00:50:33;;;;;;;9.57;8.43;;;;;;;14.05;100.00;101968.22;4901440;29;20452;-70
2023/09/17 00:53:00;;;;;;;11.83;9.33;;;;;;;14.41;100.00;101981.59;4905558;29;20471;-70
2023/09/17 00:55:28;;;;;;;10.40;7.97;;;;;;;14.76;100.00;102058.09;4903590;29;20452;-70
2023/09/17 00:57:53;;;;;;;9.37;8.07;;;;;;;14.74;100.00;102018.81;4917381;29;20440;-70
2023/09/17 01:00:22;;;;;;;9.00;7.20;;;;;;;14.66;100.00;102034.13;4904821;29;20464;-70
2023/09/17 01:02:48;;;;;;;10.87;8.20;;;;;;;14.22;100.00;101969.59;4904318;29;20216;-70
2023/09/17 01:05:13;;;;;;;11.80;7.93;;;;;;;14.67;100.00;102035.81;4907260;29;20468;-70
2023/09/17 01:07:39;;;;;;;9.27;7.83;;;;;;;14.42;100.00;102021.06;4904203;29;20204;-70
2023/09/17 01:10:05;;;;;;;10.00;8.20;;;;;;;14.03;100.00;101938.75;4909718;29;20224;-70
2023/09/17 01:12:32;;;;;;;10.37;8.20;;;;;;;14.06;100.00;101951.84;4908805;29;20208;-70
2023/09/17 01:14:57;;;;;;;10.47;8.50;;;;;;;14.51;100.00;102022.56;4922867;29;20496;-70
2023/09/17 01:17:27;;;;;;;11.30;9.83;;;;;;;14.68;100.00;102059.06;4909913;29;20453;-70
2023/09/17 01:19:53;;;;;;;10.60;8.57;;;;;;;14.68;100.00;102064.47;4913633;29;20316;-70
2023/09/17 01:22:52;;;;;;;10.20;8.80;;;;;;;14.71;100.00;102065.97;4927254;29;20437;-70
2023/09/17 01:25:34;;;;;;;10.10;9.03;;;;;;;14.74;100.00;102040.44;4921555;29;20487;-70
2023/09/17 01:28:02;;;;;;;9.53;8.53;;;;;;;14.46;100.00;101998.88;4927487;29;20507;-70
2023/09/17 01:30:27;;;;;;;10.80;8.80;;;;;;;13.86;100.00;101915.78;4926709;29;20539;-70
2023/09/17 01:32:53;;;;;;;10.07;8.80;;;;;;;13.87;100.00;101917.44;4912468;29;20567;-70
2023/09/17 01:35:20;;;;;;;9.47;8.40;;;;;;;13.91;100.00;101938.41;4905796;29;20195;-70
2023/09/17 01:37:54;;;;;;;10.20;8.37;;;;;;;14.40;100.00;102048.22;4910899;29;20813;-70
2023/09/17 01:40:20;;;;;;;9.87;8.23;;;;;;;14.61;100.00;102071.72;4925647;29;21215;-69
2023/09/17 01:42:47;;;;;;;11.00;8.83;;;;;;;13.92;100.00;101982.44;4911394;29;20460;-70
2023/09/17 01:45:16;;;;;;;10.20;7.97;;;;;;;14.56;100.00;102057.94;4910205;29;20979;-70
2023/09/17 01:47:47;;;;;;;10.70;8.30;;;;;;;14.62;100.00;102059.88;4922298;29;20440;-70
2023/09/17 01:50:15;;;;;;;10.73;9.63;;;;;;;14.54;100.00;102057.31;4906399;29;20479;-70
2023/09/17 01:52:43;;;;;;;10.63;7.90;;;;;;;13.89;100.00;101955.84;4900170;29;20497;-70
2023/09/17 01:55:08;;;;;;;9.70;8.17;;;;;;;14.51;100.00;102056.84;4919296;29;20598;-70
2023/09/17 01:57:35;;;;;;;10.07;8.60;;;;;;;13.92;100.00;101980.56;4907515;29;21229;-70
2023/09/17 02:00:09;;;;;;;11.50;9.23;;;;;;;14.59;100.00;102092.66;4923207;29;21225;-70
2023/09/17 02:02:34;;;;;;;10.93;8.67;;;;;;;13.88;100.00;101971.16;4918740;29;20582;-70
2023/09/17 02:05:00;;;;;;;11.73;9.80;;;;;;;14.08;100.00;102017.22;4909800;29;20452;-70
2023/09/17 02:07:26;;;;;;;11.67;10.57;;;;;;;14.37;100.00;102051.31;4920490;29;20193;-70
2023/09/17 02:09:51;;;;;;;11.90;9.13;;;;;;;14.18;100.00;102022.31;4921097;29;20768;-70
2023/09/17 02:12:16;;;;;;;12.70;9.60;;;;;;;13.82;100.00;101942.28;4907014;29;20610;-70
2023/09/17 02:14:42;;;;;;;11.17;10.00;;;;;;;14.67;100.00;102079.03;4906844;29;20192;-70
2023/09/17 02:17:08;;;;;;;11.13;9.73;;;;;;;14.56;100.00;102073.31;4925807;29;20188;-70
2023/09/17 02:19:34;;;;;;;11.47;9.90;;;;;;;13.83;100.00;101988.94;4922019;29;20189;-70
2023/09/17 02:21:59;;;;;;;9.70;8.37;;;;;;;14.42;100.00;102048.03;4906396;29;20455;-70
2023/09/17 02:24:25;;;;;;;9.90;8.00;;;;;;;14.68;100.00;102086.09;4923057;29;20208;-70
2023/09/17 02:26:50;;;;;;;11.00;9.20;;;;;;;14.09;100.00;101996.47;4906777;29;20700;-70
2023/09/17 02:29:15;;;;;;;10.40;9.07;;;;;;;13.88;100.00;101973.03;4922587;29;20260;-70
2023/09/17 02:31:41;;;;;;;10.60;9.50;;;;;;;14.56;100.00;102081.44;4915791;29;20610;-70
2023/09/17 02:34:07;;;;;;;10.93;9.37;;;;;;;14.64;100.00;102076.72;4915783;29;20731;-70
2023/09/17 02:36:34;;;;;;;10.80;9.60;;;;;;;14.57;100.00;102051.50;4915862;29;20200;-70
2023/09/17 02:38:59;;;;;;;11.27;8.87;;;;;;;14.53;100.00;102066.44;4918397;29;20195;-70
2023/09/17 02:41:25;;;;;;;11.80;9.80;;;;;;;14.24;100.00;102046.66;4919987;29;20448;-70
2023/09/17 02:43:50;;;;;;;12.30;10.73;;;;;;;13.82;100.00;101973.81;4919396;29;20215;-70
2023/09/17 02:46:16;;;;;;;15.37;12.17;;;;;;;14.33;100.00;102065.41;4902302;29;20199;-70
2023/09/17 02:48:41;;;;;;;13.47;11.83;;;;;;;14.59;100.00;102119.66;4920086;29;20809;-70
2023/09/17 02:51:07;;;;;;;13.73;12.30;;;;;;;14.42;100.00;102112.81;4921959;29;20203;-70
2023/09/17 02:53:32;;;;;;;14.53;11.83;;;;;;;13.68;100.00;102000.66;4924843;29;20267;-70
2023/09/17 02:55:58;;;;;;;11.67;10.47;;;;;;;14.45;100.00;102117.84;4927520;29;20188;-70
2023/09/17 02:58:24;;;;;;;12.47;10.40;;;;;;;13.66;100.00;102000.00;4926338;29;20180;-70
2023/09/17 03:00:49;;;;;;;14.30;11.43;;;;;;;14.12;100.00;102104.84;4910519;29;20192;-70
2023/09/17 03:03:15;;;;;;;13.30;10.80;;;;;;;14.45;100.00;102145.66;4912611;29;20723;-70
2023/09/17 03:05:44;;;;;;;11.90;10.60;;;;;;;13.85;100.00;102036.28;4923901;29;20283;-70
2023/09/17 03:08:09;;;;;;;11.30;10.10;;;;;;;14.42;100.00;102129.84;4925078;29;20211;-70
2023/09/17 03:10:42;;;;;;;13.00;11.40;;;;;;;14.49;100.00;102138.00;4911233;29;20479;-70
2023/09/17 03:13:10;;;;;;;12.90;10.40;;;;;;;13.73;100.00;102027.84;4925027;29;20644;-70
2023/09/17 03:15:35;;;;;;;12.00;9.90;;;;;;;13.89;100.00;102085.31;4925256;29;20436;-70
2023/09/17 03:18:01;;;;;;;13.80;12.13;;;;;;;13.96;100.00;102110.47;4911911;29;20455;-70
2023/09/17 03:20:27;;;;;;;16.10;12.50;;;;;;;13.70;100.00;102051.69;4920897;29;20196;-70
2023/09/17 03:22:53;;;;;;;13.40;11.40;;;;;;;13.77;100.00;102055.31;4902857;29;20291;-70
2023/09/17 03:25:19;;;;;;;13.07;11.60;;;;;;;14.64;100.00;102159.59;4924406;29;20447;-70
2023/09/17 03:27:45;;;;;;;13.50;11.83;;;;;;;13.69;100.00;102036.53;4906994;29;20445;-70
2023/09/17 03:30:12;;;;;;;14.63;12.97;;;;;;;14.59;100.00;102170.97;4900157;29;21013;-70
2023/09/17 03:32:38;;;;;;;13.57;11.90;;;;;;;13.96;100.00;102078.94;4919425;29;20452;-70
2023/09/17 03:35:05;;;;;;;13.73;12.27;;;;;;;14.13;100.00;102122.69;4920259;29;20491;-70
2023/09/17 03:37:30;;;;;;;12.47;10.93;;;;;;;14.33;100.00;102168.81;4896261;29;20204;-70
2023/09/17 03:40:11;;;;;;;12.23;10.93;;;;;;;14.46;100.00;102184.28;4903835;29;20813;-70
2023/09/17 03:42:38;;;;;;;11.87;10.57;;;;;;;13.57;100.00;102055.06;4916970;29;20211;-70
2023/09/17 03:45:09;;;;;;;11.60;9.67;;;;;;;14.50;100.00;102180.19;4918421;29;20447;-70
2023/09/17 03:47:42;;;;;;;12.70;11.03;;;;;;;14.66;100.00;102200.72;4907598;29;20488;-70
2023/09/17 03:50:08;;;;;;;11.20;10.00;;;;;;;14.65;100.00;102205.28;4905816;29;20476;-70
2023/09/17 03:52:38;;;;;;;11.23;9.23;;;;;;;14.31;100.00;102180.81;4906945;29;20519;-70
2023/09/17 03:55:07;;;;;;;11.40;9.10;;;;;;;14.00;100.00;102096.44;4919580;29;20793;-70
2023/09/17 03:57:35;;;;;;;9.93;8.93;;;;;;;14.05;100.00;102095.00;4906377;29;20448;-70
2023/09/17 04:00:06;;;;;;;9.87;8.70;;;;;;;14.62;100.00;102169.75;4906301;29;20801;-70
2023/09/17 04:02:35;;;;;;;9.50;8.03;;;;;;;14.12;100.00;102112.13;4903881;29;20470;-70
2023/09/17 04:05:01;;;;;;;9.37;8.30;;;;;;;14.01;100.00;102095.41;4921125;29;20450;-70
2023/09/17 04:07:27;;;;;;;9.60;8.27;;;;;;;14.48;100.00;102177.66;4904208;29;20439;-70
2023/09/17 04:09:53;;;;;;;9.37;7.90;;;;;;;14.53;100.00;102198.75;4907079;29;20850;-70
2023/09/17 04:12:18;;;;;;;9.60;8.60;;;;;;;14.60;100.00;102199.63;4905010;29;20468;-69
2023/09/17 04:14:44;;;;;;;9.10;7.80;;;;;;;14.28;100.00;102129.91;4901350;29;20556;-69
2023/09/17 04:17:10;;;;;;;8.70;7.73;;;;;;;14.85;100.00;102248.72;4914743;29;20582;-70
2023/09/17 04:19:35;;;;;;;8.60;7.37;;;;;;;14.74;100.00;102246.50;4902156;29;20448;-70
2023/09/17 04:22:02;;;;;;;7.77;6.97;;;;;;;14.68;100.00;102234.63;4906642;29;20833;-70
2023/09/17 04:24:28;;;;;;;7.37;6.40;;;;;;;14.18;100.00;102151.81;4913611;29;21011;-70
2023/09/17 04:26:54;;;;;;;6.67;5.77;;;;;;;14.60;100.00;102199.63;4919524;29;20444;-69
2023/09/17 04:29:20;;;;;;;6.10;5.50;;;;;;;14.22;100.00;102135.03;4903546;29;20873;-70
2023/09/17 04:31:46;;;;;;;6.50;5.60;;;;;;;15.03;100.00;102256.34;4918103;29;20204;-69
2023/09/17 04:34:13;;;;;;;6.97;5.07;;;;;;;14.91;100.00;102247.09;4918068;29;20484;-70
2023/09/17 04:36:39;;;;;;;7.47;6.53;;;;;;;14.43;100.00;102152.28;4904540;29;20549;-70
2023/09/17 04:39:05;;;;;;;7.13;5.83;;;;;;;15.14;100.00;102269.34;4903731;29;20456;-70
2023/09/17 04:41:30;;;;;;;9.73;6.40;;;;;;;15.05;100.00;102267.81;4916198;29;20449;-70
2023/09/17 04:43:56;;;;;;;7.70;6.13;;;;;;;14.93;100.00;102277.47;4914550;29;20223;-70
2023/09/17 04:46:22;;;;;;;6.93;5.60;;;;;;;14.92;100.00;102292.81;4905288;29;20196;-70
2023/09/17 04:48:47;;;;;;;6.10;5.50;;;;;;;15.12;100.00;102332.72;4917497;29;20747;-70
2023/09/17 04:51:16;;;;;;;6.90;5.90;;;;;;;14.83;100.00;102295.84;4919539;29;20443;-70
2023/09/17 04:53:44;;;;;;;6.77;6.07;;;;;;;14.38;100.00;102257.31;4919499;29;20220;-70
2023/09/17 04:56:10;;;;;;;7.97;7.03;;;;;;;14.75;100.00;102312.16;4905546;29;21373;-70
2023/09/17 04:58:35;;;;;;;8.10;7.07;;;;;;;15.06;100.00;102369.47;4905426;29;20448;-70
2023/09/17 05:01:00;;;;;;;7.00;6.30;;;;;;;15.11;100.00;102394.06;4903796;29;20258;-70
2023/09/17 05:03:26;;;;;;;7.67;6.90;;;;;;;14.50;100.00;102300.84;4902733;29;20222;-70
2023/09/17 05:05:51;;;;;;;6.80;5.90;;;;;;;15.34;100.00;102425.50;4905717;29;20562;-70
2023/09/17 05:08:18;;;;;;;7.10;6.10;;;;;;;14.67;100.00;102330.19;4904111;29;20216;-70
2023/09/17 05:10:44;;;;;;;6.03;5.43;;;;;;;14.34;100.00;102305.41;4921302;29;20681;-70
2023/09/17 05:13:09;;;;;;;6.30;5.70;;;;;;;15.26;100.00;102421.03;4914844;29;20464;-70
2023/09/17 05:15:36;;;;;;;7.53;6.50;;;;;;;14.53;100.00;102322.94;4905267;29;20192;-70
2023/09/17 05:18:07;;;;;;;8.03;7.23;;;;;;;15.24;100.00;102431.19;4919746;29;20200;-70
2023/09/17 05:20:33;;;;;;;7.83;7.00;;;;;;;14.81;100.00;102354.63;4904429;29;20440;-70
2023/09/17 05:22:58;;;;;;;8.77;7.87;;;;;;;15.34;100.00;102444.41;4917963;29;20478;-70
2023/09/17 05:25:24;;;;;;;8.20;7.23;;;;;;;14.91;100.00;102428.13;4905332;29;20201;-70
2023/09/17 05:27:49;;;;;;;8.70;7.73;;;;;;;15.45;100.00;102514.22;4906455;29;20199;-70
2023/09/17 05:30:14;;;;;;;9.30;8.33;;;;;;;15.44;100.00;102509.00;4906095;29;20691;-70
2023/09/17 05:32:40;;;;;;;9.77;8.77;;;;;;;15.22;100.00;102578.41;4907119;29;20217;-70
2023/09/17 05:35:07;;;;;;;10.27;9.17;;;;;;;15.26;100.00;102610.25;4921955;29;20192;-70
2023/09/17 05:37:32;;;;;;;9.20;8.20;;;;;;;15.14;100.00;102604.47;4916908;29;20196;-70
2023/09/17 05:39:58;;;;;;;10.47;9.37;;;;;;;14.96;100.00;102619.41;4908005;29;20423;-70
2023/09/17 05:42:23;;;;;;;8.33;7.40;;;;;;;14.61;100.00;102546.97;4910746;29;20177;-70
2023/09/17 05:44:49;;;;;;;9.70;8.50;;;;;;;15.14;100.00;102615.28;4910066;29;20189;-70
2023/09/17 05:47:14;;;;;;;8.90;8.00;;;;;;;14.52;100.00;102523.75;4922248;29;20233;-70
2023/09/17 05:49:40;;;;;;;8.80;7.90;;;;;;;14.46;100.00;102562.25;4909353;29;20215;-70
2023/09/17 05:52:06;;;;;;;8.50;7.60;;;;;;;14.98;100.00;102650.59;4909848;29;20648;-70
2023/09/17 05:54:32;;;;;;;10.30;9.23;;;;;;;14.65;100.00;102577.97;4924932;29;20715;-70
2023/09/17 05:56:57;;;;;;;10.60;9.50;;;;;;;14.57;100.00;102561.84;4912463;29;20564;-70
2023/09/17 05:59:23;;;;;;;9.77;8.77;;;;;;;15.02;100.00;102653.78;4923591;29;20672;-70
2023/09/17 06:01:48;;;;;;;10.50;9.47;;;;;;;14.53;100.00;102586.72;4912161;29;20177;-70
2023/09/17 06:04:13;;;;;;;9.77;7.50;;;;;;;15.49;100.00;102691.28;4911499;29;20353;-70
2023/09/17 06:06:39;;;;;;;9.23;8.33;;;;;;;15.45;100.00;102671.06;4910502;29;20701;-70
2023/09/17 06:09:05;;;;;;;10.80;8.70;;;;;;;15.48;100.00;102705.84;4926014;29;20299;-70
2023/09/17 06:11:30;;;;;;;9.17;8.27;;;;;;;15.51;100.00;102691.94;4926886;29;20185;-70
2023/09/17 06:13:56;;;;;;;9.67;8.67;;;;;;;15.73;100.00;102709.13;4910969;29;20208;-70
2023/09/17 06:16:21;;;;;;;11.53;10.00;;;;;;;15.37;100.00;102619.78;4911349;29;20497;-70
2023/09/17 06:18:47;;;;;;;10.00;8.60;;;;;;;15.78;100.00;102686.91;4912367;29;20180;-70
2023/09/17 06:21:12;;;;;;;10.23;9.23;;;;;;;15.07;100.00;102595.47;4911687;29;20220;-70
2023/09/17 06:23:38;;;;;;;10.90;9.80;;;;;;;15.33;100.00;102662.56;4924973;29;20227;-70
2023/09/17 06:26:07;;;;;;;10.83;9.73;;;;;;;15.15;100.00;102616.13;4906038;29;20440;-70
2023/09/17 06:28:32;;;;;;;12.53;10.30;;;;;;;15.76;100.00;102707.91;4923464;29;20738;-70
2023/09/17 06:30:58;;;;;;;11.50;9.40;;;;;;;14.93;100.00;102607.09;4909513;29;20448;-70
2023/09/17 06:33:24;;;;;;;10.07;8.70;;;;;;;15.12;100.00;102605.69;4920165;29;20220;-70
2023/09/17 06:35:50;;;;;;;10.50;9.27;;;;;;;15.68;100.00;102694.47;4905227;29;20468;-70
2023/09/17 06:38:15;;;;;;;11.70;9.87;;;;;;;15.19;100.00;102624.69;4910019;29;20632;-70
2023/09/17 06:40:40;;;;;;;9.73;8.70;;;;;;;15.25;100.00;102619.41;4908421;29;20192;-70
2023/09/17 06:43:06;;;;;;;10.40;9.27;;;;;;;16.01;100.00;102735.50;4919638;29;20205;-70
2023/09/17 06:45:31;;;;;;;11.47;9.03;;;;;;;16.02;100.00;102716.34;4908649;29;20192;-70
2023/09/17 06:47:57;;;;;;;10.20;9.20;;;;;;;16.10;100.00;102717.28;4914333;29;20241;-70
2023/09/17 06:50:22;;;;;;;10.00;8.73;;;;;;;16.19;100.00;102716.97;4911179;29;20266;-70
2023/09/17 06:52:48;;;;;;;11.63;10.50;;;;;;;15.97;100.00;102678.22;4912679;29;20580;-69
2023/09/17 06:55:13;;;;;;;11.27;10.10;;;;;;;16.08;100.00;102679.56;4910386;29;20186;-70
2023/09/17 06:57:38;;;;;;;11.27;10.17;;;;;;;16.38;100.00;102710.13;4909301;29;20192;-70
2023/09/17 07:00:05;;;;;;;13.60;11.80;;;;;;;16.30;100.00;102718.38;4910900;29;20331;-70
2023/09/17 07:02:31;;;;;;;12.20;11.00;;;;;;;16.36;100.00;102730.31;4923747;29;20207;-70
2023/09/17 07:05:00;;;;;;;12.87;11.50;;;;;;;16.23;100.00;102701.22;4911599;29;20607;-70
2023/09/17 07:07:25;;;;;;;11.93;10.73;;;;;;;16.45;100.00;102737.28;4910278;29;20184;-70
2023/09/17 07:09:50;;;;;;;12.57;11.27;;;;;;;16.45;100.00;102738.09;4907160;29;20834;-70
2023/09/17 07:12:16;;;;;;;13.00;11.50;;;;;;;15.91;100.00;102632.13;4924149;29;20192;-70
2023/09/17 07:14:41;;;;;;;12.63;11.33;;;;;;;16.49;100.00;102723.16;4918642;29;20192;-70
2023/09/17 07:17:07;;;;;;;12.60;11.30;;;;;;;16.20;100.00;102686.19;4917980;29;20671;-70
2023/09/17 07:19:33;;;;;;;14.53;11.50;;;;;;;16.65;100.00;102729.34;4919110;29;20184;-70
2023/09/17 07:21:59;;;;;;;13.37;11.97;;;;;;;16.20;100.00;102632.03;4905876;29;20220;-70
2023/09/17 07:24:24;;;;;;;12.63;11.33;;;;;;;16.77;100.00;102703.44;4910849;29;20490;-70
2023/09/17 07:26:50;;;;;;;13.40;11.97;;;;;;;17.01;100.00;102710.34;4907964;29;20196;-70
2023/09/17 07:29:15;;;;;;;12.30;10.57;;;;;;;17.10;100.00;102689.34;4909473;29;20217;-70
2023/09/17 07:31:41;;;;;;;12.17;10.90;;;;;;;17.19;100.00;102693.59;4908489;29;20703;-70
2023/09/17 07:34:06;;;;;;;12.83;11.43;;;;;;;17.25;100.00;102673.81;4907518;29;20596;-70
2023/09/17 07:36:32;;;;;;;12.23;10.97;;;;;;;17.39;100.00;102672.84;4910324;29;20463;-70
2023/09/17 07:38:57;;;;;;;12.67;11.27;;;;;;;17.42;100.00;102659.94;4905705;29;20204;-70
2023/09/17 07:41:23;;;;;;;11.73;10.53;;;;;;;17.38;100.00;102625.03;4904060;29;21082;-70
2023/09/17 07:43:48;;;;;;;11.43;10.23;;;;;;;16.80;100.00;102510.66;4906629;29;20687;-70
2023/09/17 07:46:14;;;;;;;10.93;9.83;;;;;;;17.59;100.00;102590.72;4904768;29;20192;-70
2023/09/17 07:48:40;;;;;;;11.90;10.70;;;;;;;17.03;100.00;102498.69;4907634;29;20216;-70
2023/09/17 07:51:05;;;;;;;13.90;12.13;;;;;;;17.45;100.00;102534.75;4906484;29;20753;-70
2023/09/17 07:53:32;;;;;;;11.83;10.53;;;;;;;17.55;100.00;102517.03;4905421;29;20465;-70
2023/09/17 07:55:58;;;;;;;11.03;9.53;;;;;;;17.65;100.00;102516.66;4911876;29;20561;-70
2023/09/17 07:58:23;;;;;;;11.47;10.00;;;;;;;17.62;100.00;102514.34;4919003;29;20440;-70
2023/09/17 08:00:49;;;;;;;11.50;9.30;;;;;;;17.15;100.00;102432.84;4919311;29;20835;-70
2023/09/17 08:03:18;;;;;;;13.23;11.83;;;;;;;17.69;100.00;102501.63;4904916;29;20212;-70
2023/09/17 08:05:45;;;;;;;13.53;11.13;;;;;;;17.75;100.00;102502.69;4903814;29;20196;-70
2023/09/17 08:08:11;;;;;;;12.83;11.53;;;;;;;17.15;100.00;102394.03;4917507;29;20515;-70
2023/09/17 08:10:36;;;;;;;11.90;10.70;;;;;;;17.14;100.00;102414.06;4902358;29;20444;-70
2023/09/17 08:13:02;;;;;;;10.97;9.50;;;;;;;17.21;100.00;102412.19;4904888;29;20496;-69
2023/09/17 08:15:29;;;;;;;13.97;12.17;;;;;;;17.27;100.00;102414.09;4906177;29;20180;-69
2023/09/17 08:17:55;;;;;;;13.40;12.10;;;;;;;17.89;100.00;102506.28;4907847;29;20536;-70
2023/09/17 08:20:22;;;;;;;13.37;11.97;;;;;;;17.24;100.00;102398.25;4905269;29;20451;-69
2023/09/17 08:22:49;;;;;;;15.10;13.13;;;;;;;17.20;100.00;102386.13;4901070;29;20493;-70
2023/09/17 08:25:15;;;;;;;13.40;12.00;;;;;;;17.84;100.00;102496.03;4903717;29;20449;-68
2023/09/17 08:27:41;;;;;;;12.50;10.53;;;;;;;17.84;100.00;102472.44;4905521;29;20436;-68
2023/09/17 08:30:07;;;;;;;11.37;10.07;;;;;;;17.92;100.00;102462.44;4907883;29;20298;-68
2023/09/17 08:32:33;;;;;;;12.40;11.10;;;;;;;18.05;100.00;102456.97;4907429;29;20551;-68
2023/09/17 08:34:58;;;;;;;12.10;10.80;;;;;;;17.97;100.00;102435.50;4917910;29;20192;-70
2023/09/17 08:37:24;;;;;;;12.33;11.03;;;;;;;17.44;100.00;102337.75;4906108;29;20267;-69
2023/09/17 08:39:50;;;;;;;11.63;10.00;;;;;;;17.96;100.00;102415.63;4917617;29;20219;-69
2023/09/17 08:42:16;;;;;;;11.00;9.90;;;;;;;17.37;100.00;102330.44;4909969;29;20199;-69
2023/09/17 08:44:42;;;;;;;10.80;9.70;;;;;;;17.43;100.00;102319.81;4923253;29;20445;-69
2023/09/17 08:47:08;;;;;;;12.40;9.93;;;;;;;17.89;100.00;102359.69;4907203;29;20184;-69
2023/09/17 08:49:33;;;;;;;12.03;10.73;;;;;;;17.92;100.00;102346.53;4905590;29;20845;-69
2023/09/17 08:52:04;;;;;;;10.90;9.80;;;;;;;18.13;100.00;102350.88;4908719;29;20231;-69
2023/09/17 08:54:37;;;;;;;12.13;10.40;;;;;;;18.28;100.00;102339.75;4907744;29;20279;-69
2023/09/17 08:57:04;;;;;;;11.50;9.90;;;;;;;17.68;100.00;102209.63;4907735;29;20962;-69
2023/09/17 08:59:30;;;;;;;10.93;9.70;;;;;;;18.24;100.00;102276.91;4906520;29;20484;-68
2023/09/17 09:02:02;;;;;;;12.70;10.00;;;;;;;18.50;100.00;102270.50;4912190;29;20475;-69
2023/09/17 09:04:29;;;;;;;10.53;8.80;;;;;;;18.16;100.00;102217.38;4922919;29;20452;-69
2023/09/17 09:06:55;;;;;;;10.13;9.00;;;;;;;17.93;100.00;102162.78;4923125;29;20943;-69
2023/09/17 09:09:23;;;;;;;10.67;9.07;;;;;;;18.25;100.00;102207.09;4904920;29;20476;-69
2023/09/17 09:11:49;;;;;;;10.33;8.60;;;;;;;18.01;100.00;102141.66;4916465;29;20217;-69
2023/09/17 09:14:15;;;;;;;9.17;8.20;;;;;;;18.13;100.00;102141.78;4922772;29;20834;-69
2023/09/17 09:16:41;;;;;;;10.73;9.13;;;;;;;17.84;100.00;102102.47;4914000;29;20443;-69
2023/09/17 09:19:07;;;;;;;9.07;7.70;;;;;;;18.54;100.00;102189.38;4919776;29;20522;-69
2023/09/17 09:21:33;;;;;;;9.80;8.73;;;;;;;17.89;100.00;102069.28;4917586;29;20193;-69
2023/09/17 09:23:59;;;;;;;9.20;7.67;;;;;;;18.63;100.00;102158.22;4908258;29;21160;-69
2023/09/17 09:26:35;;;;;;;10.97;8.20;;;;;;;18.55;100.00;102130.47;4903420;29;20248;-69
2023/09/17 09:29:03;;;;;;;10.13;7.57;;;;;;;17.93;100.00;102038.75;4907452;29;20583;-69
2023/09/17 09:31:29;;;;;;;9.60;7.43;;;;;;;18.23;100.00;102055.25;4915947;29;20530;-69
2023/09/17 09:33:59;;;;;;;8.40;6.40;;;;;;;18.33;100.00;102035.75;4909196;29;21555;-69
2023/09/17 09:36:30;;;;;;;8.43;6.70;;;;;;;18.81;100.00;102094.13;4907755;29;20204;-69
2023/09/17 09:38:56;;;;;;;8.37;7.20;;;;;;;18.29;100.00;101970.19;4911278;29;20911;-69
2023/09/17 09:41:23;;;;;;;7.80;6.60;;;;;;;18.94;100.00;102043.16;4909438;29;20448;-69
2023/09/17 09:43:49;;;;;;;7.33;6.10;;;;;;;18.99;100.00;102042.47;4909775;29;20464;-69
2023/09/17 09:46:14;;;;;;;7.37;5.57;;;;;;;18.74;100.00;101980.84;4921271;29;20555;-69
2023/09/17 09:48:41;;;;;;;8.37;5.90;;;;;;;18.53;100.00;101932.34;4908802;29;20472;-69
2023/09/17 09:51:07;;;;;;;6.90;6.03;;;;;;;19.01;100.00;101990.63;4921785;29;20184;-69
2023/09/17 09:53:32;;;;;;;7.73;5.70;;;;;;;19.14;100.00;101987.72;4918380;29;21041;-69
2023/09/17 09:55:58;;;;;;;7.43;5.90;;;;;;;18.46;100.00;101866.41;4910005;29;20271;-69
2023/09/17 09:58:24;;;;;;;10.20;7.20;;;;;;;18.84;100.00;101925.16;4912750;29;20180;-69
2023/09/17 10:00:50;;;;;;;8.17;6.57;;;;;;;18.30;100.00;101854.22;4909889;29;20207;-69
2023/09/17 10:03:19;;;;;;;7.80;6.00;;;;;;;18.93;100.00;101931.94;4914216;29;20460;-69
2023/09/17 10:05:45;;;;;;;8.70;7.30;;;;;;;18.44;100.00;101846.78;4911547;29;20695;-69
2023/09/17 10:08:17;;;;;;;7.57;6.00;;;;;;;18.99;100.00;101922.84;4909882;29;20608;-69
2023/09/17 10:10:43;;;;;;;7.70;6.07;;;;;;;19.03;100.00;101912.34;4919702;29;20188;-69
2023/09/17 10:13:10;;;;;;;7.50;5.90;;;;;;;19.09;100.00;101866.06;4909496;29;20488;-69
2023/09/17 10:15:37;;;;;;;7.77;6.07;;;;;;;19.26;100.00;101868.91;4912907;29;20428;-69
2023/09/17 10:18:12;;;;;;;6.00;5.17;;;;;;;18.31;100.00;101706.50;4906214;29;20620;-69
2023/09/17 10:20:39;;;;;;;7.87;6.23;;;;;;;19.31;100.00;101830.16;4922353;29;20451;-69
2023/09/17 10:23:06;;;;;;;8.27;5.50;;;;;;;18.93;100.00;101739.72;4921311;29;20460;-69
2023/09/17 10:25:33;;;;;;;5.60;4.00;;;;;;;19.61;100.00;101835.53;4912182;29;20436;-69
2023/09/17 10:28:01;;;;;;;5.00;4.00;;;;;;;19.38;100.00;101801.81;4911694;29;20424;-69
2023/09/17 10:30:27;;;;;;;6.90;4.43;;;;;;;19.55;100.00;101790.22;4920628;29;20475;-69
2023/09/17 10:32:54;;;;;;;6.43;4.30;;;;;;;19.13;100.00;101706.78;4908117;29;20846;-70
2023/09/17 10:35:20;;;;;;;5.20;4.30;;;;;;;18.89;100.00;101699.66;4908775;29;20193;-71
2023/09/17 10:37:47;;;;;;;6.27;4.23;;;;;;;18.79;100.00;101673.03;4908539;29;20460;-69
2023/09/17 10:40:13;;;;;;;6.43;4.43;;;;;;;19.25;100.00;101763.91;4919498;29;20415;-69
2023/09/17 10:42:39;;;;;;;6.10;4.57;;;;;;;19.35;100.00;101788.66;4910115;29;20459;-69
2023/09/17 10:45:10;;;;;;;6.20;4.23;;;;;;;18.70;100.00;101721.44;4910037;29;20440;-69
2023/09/17 10:47:38;;;;;;;7.73;4.40;;;;;;;18.63;100.00;101698.97;4922634;29;20505;-69
2023/09/17 10:50:05;;;;;;;8.07;5.03;;;;;;;19.22;100.00;101804.34;4902373;29;20486;-69
2023/09/17 10:52:31;;;;;;;5.70;4.47;;;;;;;19.18;100.00;101814.88;4915865;29;20472;-69
2023/09/17 10:54:58;;;;;;;6.83;4.20;;;;;;;18.60;100.00;101725.75;4904800;29;20459;-69
2023/09/17 11:00:55;;;;;;;6.73;5.03;;;;;;;18.74;100.00;101735.41;4918422;29;20470;-69
2023/09/17 11:03:24;;;;;;;6.53;4.53;;;;;;;19.42;100.00;101832.91;4911215;29;20472;-69
2023/09/17 11:05:52;;;;;;;6.00;4.80;;;;;;;19.50;100.00;101829.03;4921243;29;21239;-71
2023/09/17 11:08:19;;;;;;;5.97;4.00;;;;;;;19.02;100.00;101761.16;4910991;29;20432;-71
2023/09/17 11:10:45;;;;;;;5.23;4.00;;;;;;;19.03;100.00;101750.03;4904713;29;20519;-71